Orange Beach, Alabama
Current Conditions -  °F | °C
As of 6:55 PM on Wednesday 22 Oct 2014 (Local Time) from KJKA Reporting Station
Clear Clear  
Wind Chill: 67°   Ceiling: Unl
Heat Index: 67°   Visibility: 10mi
Dew Point: 51°   Wind: 5mph
Humidity: 56%   Direction: 10°N
Pressure: 30.02"   Gusts: NA
Location:  30.29°N, 87.57°W
Report Text: KJKA 222355Z AUTO 01004KT 10SM CLR 20/11 A3002 RMK AO2 T01960105 10257 20196
Loading
Personal Weather Stations






























Interactive Weather Map
Tropical Storm Tracking
New forecast layout! Learn more

10-Day Weather Forecast

Advertisements
Track Severe Weather on mobile